Time;durP1;ratioP1;P1;durP2;ratioP2;P2;SDS_P1;SDS_P2;PMS_P1;PMS_P2;Temp;Humidity;BMP_temperature;BMP_pressure;BME280_temperature;BME280_humidity;BME280_pressure;Samples;Min_cycle;Max_cycle;Signal;HPM_P1;HPM_P2
2024/04/12 00:00:32;;;;;;;7.03;6.43;;;12.10;50.50;;;;;;5365006;26;20281;-66
2024/04/12 00:03:01;;;;;;;6.73;6.13;;;12.20;50.30;;;;;;5348590;26;20330;-66
2024/04/12 00:05:27;;;;;;;7.73;7.03;;;12.10;50.60;;;;;;5356660;26;20959;-66
2024/04/12 00:08:02;;;;;;;7.70;6.90;;;12.20;50.10;;;;;;5370000;26;20234;-66
2024/04/12 00:10:27;;;;;;;7.03;6.43;;;12.00;50.80;;;;;;5354592;26;20247;-66
2024/04/12 00:12:55;;;;;;;7.33;6.47;;;12.00;50.80;;;;;;5363369;26;20285;-66
2024/04/12 00:15:22;;;;;;;7.37;6.53;;;11.90;51.70;;;;;;5395195;26;20690;-66
2024/04/12 00:17:55;;;;;;;7.87;7.07;;;11.80;51.90;;;;;;5364882;26;20230;-66
2024/04/12 00:20:21;;;;;;;10.03;7.07;;;11.60;52.60;;;;;;5357255;26;20239;-66
2024/04/12 00:22:55;;;;;;;7.83;7.07;;;11.60;53.00;;;;;;5357442;26;20248;-66
2024/04/12 00:25:21;;;;;;;9.00;7.33;;;11.60;53.30;;;;;;5365135;26;20772;-66
2024/04/12 00:27:49;;;;;;;9.70;7.67;;;11.50;53.30;;;;;;5343496;26;20243;-66
2024/04/12 00:30:37;;;;;;;8.17;7.33;;;11.40;53.70;;;;;;5375819;26;20243;-66
2024/04/12 00:33:09;;;;;;;9.87;7.70;;;11.30;54.30;;;;;;5347994;26;20243;-66
2024/04/12 00:35:35;;;;;;;8.23;7.53;;;11.30;54.70;;;;;;5362323;26;20240;-66
2024/04/12 00:38:03;;;;;;;8.53;7.73;;;11.10;54.40;;;;;;5363924;26;20238;-66
2024/04/12 00:40:32;;;;;;;8.17;7.37;;;11.20;54.90;;;;;;5367784;26;20736;-66
2024/04/12 00:43:11;;;;;;;8.93;8.17;;;11.30;54.70;;;;;;5349198;26;20302;-66
2024/04/12 00:45:39;;;;;;;9.00;7.77;;;11.30;54.70;;;;;;5349110;26;20640;-66
2024/04/12 00:48:08;;;;;;;10.13;7.77;;;11.30;55.20;;;;;;5372105;26;20268;-66
2024/04/12 00:50:36;;;;;;;10.23;8.03;;;11.20;55.30;;;;;;5367723;26;20276;-66
2024/04/12 00:53:05;;;;;;;8.67;7.87;;;11.10;55.60;;;;;;5353261;26;20284;-66
2024/04/12 00:55:32;;;;;;;9.53;8.20;;;11.10;55.70;;;;;;5361652;26;20313;-66
2024/04/12 00:58:01;;;;;;;9.30;8.40;;;11.10;55.30;;;;;;5391722;26;20286;-66
2024/04/12 01:00:35;;;;;;;8.17;7.37;;;11.00;55.90;;;;;;5365400;26;20238;-66
2024/04/12 01:03:05;;;;;;;9.03;8.23;;;11.00;55.70;;;;;;5337906;26;20291;-66
2024/04/12 01:05:32;;;;;;;7.87;7.17;;;10.90;55.70;;;;;;5364329;26;20259;-66
2024/04/12 01:08:00;;;;;;;8.20;7.40;;;11.00;55.60;;;;;;5377098;26;20244;-66
2024/04/12 01:10:26;;;;;;;8.97;8.07;;;10.90;55.80;;;;;;5367322;26;20289;-66
2024/04/12 01:12:55;;;;;;;7.87;7.07;;;10.90;55.50;;;;;;5362858;26;20240;-66
2024/04/12 01:15:21;;;;;;;7.67;6.87;;;10.90;55.60;;;;;;5367537;26;20327;-66
2024/04/12 01:17:49;;;;;;;10.57;7.20;;;10.90;55.40;;;;;;5352069;26;20238;-66
2024/04/12 01:20:16;;;;;;;8.23;7.37;;;10.90;55.50;;;;;;5358115;26;20377;-66
2024/04/12 01:22:44;;;;;;;8.67;7.80;;;10.80;56.00;;;;;;5347480;26;20250;-66
2024/04/12 01:25:10;;;;;;;9.17;7.43;;;10.60;56.30;;;;;;5359252;26;20611;-66
2024/04/12 01:27:38;;;;;;;9.47;7.40;;;10.60;57.00;;;;;;5345365;26;20239;-66
2024/04/12 01:30:04;;;;;;;8.07;7.30;;;10.80;56.50;;;;;;5366621;26;20273;-66
2024/04/12 01:32:33;;;;;;;8.70;7.37;;;10.80;56.20;;;;;;5346010;26;20254;-66
2024/04/12 01:34:58;;;;;;;7.53;6.93;;;10.80;56.40;;;;;;5346799;26;20291;-66
2024/04/12 01:37:30;;;;;;;8.40;6.83;;;10.90;56.20;;;;;;5354128;26;20245;-66
2024/04/12 01:40:01;;;;;;;7.90;7.20;;;10.90;55.70;;;;;;5353288;26;20279;-66
2024/04/12 01:42:30;;;;;;;8.23;6.83;;;10.70;56.40;;;;;;5359812;26;20243;-66
2024/04/12 01:47:51;;;;;;;7.50;6.90;;;10.80;56.50;;;;;;5322722;26;20246;-66
2024/04/12 01:50:21;;;;;;;7.63;6.93;;;10.80;56.40;;;;;;5356974;26;20734;-66
2024/04/12 01:52:53;;;;;;;8.30;7.23;;;10.80;56.70;;;;;;5362605;26;20234;-66
2024/04/12 01:55:19;;;;;;;7.93;7.20;;;10.90;56.80;;;;;;5366034;26;20363;-66
2024/04/12 01:57:47;;;;;;;7.60;6.97;;;10.80;56.90;;;;;;5348186;26;20256;-66
2024/04/12 02:00:16;;;;;;;8.50;7.10;;;10.80;57.30;;;;;;5344790;26;20293;-66
2024/04/12 02:02:45;;;;;;;8.20;7.10;;;10.80;56.80;;;;;;5360503;26;20300;-66
2024/04/12 02:05:10;;;;;;;7.73;7.03;;;10.80;57.00;;;;;;5364267;26;20237;-66
2024/04/12 02:07:40;;;;;;;8.83;7.57;;;10.80;56.80;;;;;;5356771;26;20623;-66
2024/04/12 02:10:07;;;;;;;7.70;7.03;;;10.80;57.10;;;;;;5357888;26;20316;-66
2024/04/12 02:12:36;;;;;;;54.63;42.27;;;10.70;57.60;;;;;;5345276;26;20247;-66
2024/04/12 02:15:16;;;;;;;73.90;57.07;;;10.70;57.50;;;;;;5330616;26;20795;-66
2024/04/12 02:17:46;;;;;;;59.50;45.77;;;10.70;57.40;;;;;;5387343;26;20297;-66
2024/04/12 02:20:19;;;;;;;18.40;15.60;;;10.80;56.50;;;;;;5363114;26;20237;-66
2024/04/12 02:22:49;;;;;;;9.40;8.50;;;10.80;56.50;;;;;;5343932;26;20659;-66
2024/04/12 02:25:17;;;;;;;8.80;7.93;;;10.90;56.20;;;;;;5342548;26;20277;-66
2024/04/12 02:27:55;;;;;;;10.47;8.10;;;11.00;55.80;;;;;;5354538;26;20303;-66
2024/04/12 02:30:22;;;;;;;9.07;7.97;;;11.00;55.90;;;;;;5347000;26;20241;-66
2024/04/12 02:32:51;;;;;;;9.10;7.30;;;10.70;56.80;;;;;;5359244;26;20230;-66
2024/04/12 02:35:17;;;;;;;8.73;7.93;;;10.50;57.70;;;;;;5360842;26;20763;-65
2024/04/12 02:37:47;;;;;;;8.23;7.53;;;10.40;58.00;;;;;;5362608;26;20342;-65
2024/04/12 02:40:15;;;;;;;9.10;8.07;;;10.40;58.20;;;;;;5366457;26;20370;-65
2024/04/12 02:42:44;;;;;;;8.80;7.90;;;10.40;58.20;;;;;;5347010;26;20230;-66
2024/04/12 02:45:12;;;;;;;8.50;7.70;;;10.40;57.60;;;;;;5348465;26;20264;-65
2024/04/12 02:47:40;;;;;;;8.43;7.70;;;10.30;57.10;;;;;;5358310;26;20237;-65
2024/04/12 02:50:09;;;;;;;7.70;7.10;;;10.30;57.50;;;;;;5357146;26;20282;-65
2024/04/12 02:52:38;;;;;;;7.97;7.27;;;10.40;57.50;;;;;;5359222;26;20245;-65
2024/04/12 02:55:09;;;;;;;6.87;6.37;;;10.40;58.20;;;;;;5365072;26;20232;-65
2024/04/12 02:57:38;;;;;;;8.10;7.50;;;10.30;58.10;;;;;;5350577;26;20323;-65
2024/04/12 03:00:03;;;;;;;7.47;6.43;;;10.40;58.10;;;;;;5366307;26;20246;-65
2024/04/12 03:02:32;;;;;;;7.70;7.10;;;10.40;57.80;;;;;;5362297;26;20655;-65
2024/04/12 03:05:00;;;;;;;7.80;7.10;;;10.50;57.30;;;;;;5345384;26;20741;-66
2024/04/12 03:07:33;;;;;;;9.47;7.60;;;10.40;56.70;;;;;;5356176;26;20245;-65
2024/04/12 03:09:59;;;;;;;7.50;6.83;;;10.30;57.60;;;;;;5330277;26;20281;-66
2024/04/12 03:12:27;;;;;;;8.20;7.40;;;10.30;58.10;;;;;;5356086;26;20354;-65
2024/04/12 03:14:54;;;;;;;8.37;6.83;;;10.10;58.00;;;;;;5350180;26;20342;-65
2024/04/12 03:17:22;;;;;;;7.53;6.83;;;10.20;58.10;;;;;;5355765;26;20288;-65
2024/04/12 03:19:48;;;;;;;7.57;6.77;;;10.30;58.10;;;;;;5349798;26;20288;-66
2024/04/12 03:22:17;;;;;;;8.40;7.20;;;10.20;58.10;;;;;;5356824;26;20313;-66
2024/04/12 03:24:43;;;;;;;8.67;6.87;;;10.10;59.20;;;;;;5398860;26;20246;-66
2024/04/12 03:27:13;;;;;;;7.27;6.57;;;10.20;58.10;;;;;;5358839;26;20284;-65
2024/04/12 03:29:39;;;;;;;7.37;6.60;;;10.10;58.10;;;;;;5350079;26;20241;-65
2024/04/12 03:32:07;;;;;;;7.50;6.80;;;10.30;58.00;;;;;;5352636;26;20241;-65
2024/04/12 03:34:35;;;;;;;7.60;7.00;;;10.30;58.10;;;;;;5355976;26;20298;-65
2024/04/12 03:37:16;;;;;;;7.97;7.13;;;10.40;57.60;;;;;;5358224;26;20830;-65
2024/04/12 03:39:45;;;;;;;7.63;7.03;;;10.40;57.20;;;;;;5358874;26;20363;-65
2024/04/12 03:42:18;;;;;;;7.93;7.03;;;10.30;57.60;;;;;;5343846;26;20239;-65
2024/04/12 03:44:43;;;;;;;8.03;7.33;;;10.10;57.70;;;;;;5358594;26;20272;-66
2024/04/12 03:47:13;;;;;;;10.60;7.10;;;10.10;58.00;;;;;;5340060;26;20252;-66
2024/04/12 03:49:39;;;;;;;8.60;7.13;;;10.10;58.00;;;;;;5352912;26;20306;-65
2024/04/12 03:52:11;;;;;;;6.90;6.23;;;10.20;57.60;;;;;;5353109;26;20344;-66
2024/04/12 03:54:36;;;;;;;7.60;6.80;;;10.10;58.00;;;;;;5349693;26;20316;-65
2024/04/12 03:57:09;;;;;;;7.10;6.40;;;10.10;58.60;;;;;;5364586;26;20319;-65
2024/04/12 03:59:35;;;;;;;6.80;6.17;;;10.10;57.70;;;;;;5360433;26;20282;-65
2024/04/12 04:02:07;;;;;;;6.80;5.73;;;10.10;57.90;;;;;;5342458;26;20241;-66
2024/04/12 04:04:37;;;;;;;6.47;5.97;;;10.10;58.00;;;;;;5358274;26;20745;-65
2024/04/12 04:07:02;;;;;;;6.80;6.20;;;10.10;57.80;;;;;;5337217;26;20507;-65
2024/04/12 04:09:32;;;;;;;7.10;6.00;;;10.00;57.70;;;;;;5356457;26;20765;-65
2024/04/12 04:11:57;;;;;;;6.00;5.57;;;10.10;58.00;;;;;;5339701;26;20248;-65
2024/04/12 04:14:25;;;;;;;6.27;5.77;;;10.00;57.90;;;;;;5358277;26;20737;-65
2024/04/12 04:16:52;;;;;;;7.37;6.53;;;10.00;57.90;;;;;;5347841;26;20372;-66
2024/04/12 04:19:20;;;;;;;7.50;5.67;;;9.90;58.80;;;;;;5363888;26;20824;-65
2024/04/12 04:21:46;;;;;;;6.47;5.67;;;9.80;59.00;;;;;;5349122;26;20255;-65
2024/04/12 04:24:14;;;;;;;5.73;5.23;;;9.70;58.90;;;;;;5341024;26;20762;-65
2024/04/12 04:26:40;;;;;;;6.47;5.87;;;9.70;59.10;;;;;;5358847;26;20232;-65
2024/04/12 04:29:09;;;;;;;6.13;5.53;;;9.60;59.60;;;;;;5353206;26;20281;-65
2024/04/12 04:31:36;;;;;;;5.83;5.30;;;9.60;59.60;;;;;;5357551;26;20590;-65
2024/04/12 04:34:05;;;;;;;6.00;5.40;;;9.60;59.20;;;;;;5357627;26;20319;-65
2024/04/12 04:36:33;;;;;;;7.70;5.53;;;9.70;59.50;;;;;;5357116;26;20283;-66
2024/04/12 04:39:01;;;;;;;7.00;5.63;;;9.50;59.50;;;;;;5358332;26;20241;-65
2024/04/12 04:41:27;;;;;;;7.40;5.57;;;9.50;60.00;;;;;;5333286;26;20374;-65
2024/04/12 04:43:55;;;;;;;5.87;5.07;;;9.60;59.80;;;;;;5359392;26;20251;-65
2024/04/12 04:46:26;;;;;;;7.23;5.20;;;9.60;59.90;;;;;;5357080;26;20372;-65
2024/04/12 04:48:55;;;;;;;7.60;5.87;;;9.60;59.60;;;;;;5346485;26;20315;-65
2024/04/12 04:51:22;;;;;;;5.90;5.10;;;9.60;59.50;;;;;;5356504;26;20233;-65
2024/04/12 04:53:52;;;;;;;5.00;4.60;;;9.60;59.90;;;;;;5358076;26;20236;-65
2024/04/12 04:56:24;;;;;;;5.77;4.90;;;9.50;60.20;;;;;;5358323;26;20237;-65
2024/04/12 04:58:52;;;;;;;5.57;4.83;;;9.60;59.90;;;;;;5348790;26;20287;-65
2024/04/12 05:01:18;;;;;;;5.10;4.60;;;9.50;60.00;;;;;;5371157;26;20237;-65
2024/04/12 05:03:49;;;;;;;5.73;4.93;;;9.50;60.20;;;;;;5364591;26;20244;-65
2024/04/12 05:06:19;;;;;;;5.33;4.83;;;9.50;60.10;;;;;;5360809;26;20241;-65
2024/04/12 05:08:47;;;;;;;6.77;4.97;;;9.60;60.50;;;;;;5360661;26;20239;-66
2024/04/12 05:11:12;;;;;;;6.53;5.27;;;9.70;59.90;;;;;;5360463;26;20279;-65
2024/04/12 05:13:41;;;;;;;5.50;4.87;;;9.60;60.20;;;;;;5360893;26;20239;-65
2024/04/12 05:16:11;;;;;;;6.03;5.00;;;9.70;59.60;;;;;;5341599;26;20743;-65
2024/04/12 05:18:40;;;;;;;5.87;5.37;;;9.80;59.50;;;;;;5359542;26;20859;-65
2024/04/12 05:21:05;;;;;;;9.63;5.50;;;9.90;58.80;;;;;;5359452;26;20245;-67
2024/04/12 05:23:34;;;;;;;6.00;5.40;;;9.90;59.30;;;;;;5353126;26;20313;-66
2024/04/12 05:26:01;;;;;;;5.87;5.27;;;9.90;59.20;;;;;;5351289;26;20237;-66
2024/04/12 05:28:30;;;;;;;8.27;5.13;;;9.90;59.80;;;;;;5350756;26;20287;-66
2024/04/12 05:30:55;;;;;;;6.40;5.47;;;10.10;58.50;;;;;;5365457;26;20328;-66
2024/04/12 05:33:24;;;;;;;5.07;4.67;;;10.10;58.40;;;;;;5361218;26;20245;-66
2024/04/12 05:35:50;;;;;;;6.57;5.20;;;10.20;58.10;;;;;;5364048;26;20287;-66
2024/04/12 05:38:21;;;;;;;5.70;5.00;;;10.30;58.10;;;;;;5356799;26;20771;-66
2024/04/12 05:40:51;;;;;;;6.27;5.40;;;10.50;58.30;;;;;;5339568;26;20242;-66
2024/04/12 05:43:21;;;;;;;7.67;5.67;;;10.50;58.30;;;;;;5367633;26;20667;-65
2024/04/12 05:45:47;;;;;;;5.83;5.30;;;10.50;58.30;;;;;;5363332;26;20360;-66
2024/04/12 05:48:15;;;;;;;6.70;5.17;;;10.60;58.40;;;;;;5363407;26;20245;-66
2024/04/12 05:50:41;;;;;;;6.13;5.53;;;10.70;58.00;;;;;;5356031;26;20241;-66
2024/04/12 05:53:11;;;;;;;6.23;5.63;;;10.80;57.80;;;;;;5357695;26;20630;-66
2024/04/12 05:55:44;;;;;;;6.13;5.20;;;10.80;57.50;;;;;;5394252;26;20246;-66
2024/04/12 05:58:12;;;;;;;5.50;5.00;;;10.90;57.10;;;;;;5359834;26;20269;-66
2024/04/12 06:00:41;;;;;;;6.30;5.70;;;11.10;56.60;;;;;;5351342;26;20296;-66
2024/04/12 06:03:09;;;;;;;6.20;5.17;;;11.30;56.70;;;;;;5376088;26;20683;-67
2024/04/12 06:05:35;;;;;;;8.40;5.83;;;11.40;56.00;;;;;;5338903;26;20597;-66
2024/04/12 06:08:03;;;;;;;5.87;4.93;;;11.60;55.70;;;;;;5346429;26;20311;-66
2024/04/12 06:10:29;;;;;;;6.20;5.10;;;11.80;55.10;;;;;;5342670;26;20405;-66
2024/04/12 06:12:58;;;;;;;5.27;4.77;;;11.90;54.60;;;;;;5342897;26;20251;-66
2024/04/12 06:15:28;;;;;;;5.97;5.37;;;12.10;55.00;;;;;;5339480;26;20251;-66
2024/04/12 06:17:57;;;;;;;6.90;5.47;;;12.20;53.90;;;;;;5360430;26;20239;-66
2024/04/12 06:20:30;;;;;;;6.13;5.07;;;12.30;54.00;;;;;;5360073;26;20240;-67
2024/04/12 06:22:59;;;;;;;5.77;4.90;;;12.40;53.30;;;;;;5356664;26;20340;-66
2024/04/12 06:25:25;;;;;;;7.00;4.77;;;12.60;52.70;;;;;;5338811;26;20301;-67
2024/04/12 06:27:54;;;;;;;5.60;4.60;;;12.70;52.40;;;;;;5350976;26;20292;-67
2024/04/12 06:30:24;;;;;;;7.27;5.37;;;12.70;52.30;;;;;;5357209;26;20610;-66
2024/04/12 06:32:53;;;;;;;6.40;4.77;;;12.80;52.40;;;;;;5347940;26;20755;-67
2024/04/12 06:35:20;;;;;;;5.73;5.23;;;13.10;51.50;;;;;;5356107;26;20299;-66
2024/04/12 06:37:51;;;;;;;5.33;4.80;;;13.30;52.40;;;;;;5313286;26;20275;-66
2024/04/12 06:40:18;;;;;;;5.40;4.90;;;13.40;51.40;;;;;;5328002;26;20313;-66
2024/04/12 06:42:47;;;;;;;5.43;4.97;;;13.60;50.50;;;;;;5309495;26;20252;-67
2024/04/12 06:45:15;;;;;;;5.40;4.90;;;13.80;50.00;;;;;;5335463;26;20366;-66
2024/04/12 06:47:43;;;;;;;7.47;5.50;;;13.80;50.00;;;;;;5310569;26;20260;-66
2024/04/12 06:50:09;;;;;;;7.00;5.43;;;14.10;49.50;;;;;;5305771;26;20258;-66
2024/04/12 06:52:37;;;;;;;6.73;5.37;;;14.20;49.50;;;;;;5355835;26;20734;-67
2024/04/12 06:55:07;;;;;;;7.90;5.47;;;14.40;49.20;;;;;;5339677;26;20254;-66
2024/04/12 06:57:35;;;;;;;7.73;5.77;;;14.40;48.40;;;;;;5334471;26;20249;-67
2024/04/12 07:00:07;;;;;;;9.50;6.27;;;14.50;48.50;;;;;;5349843;26;20366;-68
2024/04/12 07:02:35;;;;;;;6.10;5.30;;;14.60;48.80;;;;;;5348685;26;20301;-68
2024/04/12 07:05:01;;;;;;;6.33;4.93;;;14.50;47.60;;;;;;5341236;26;20610;-68
2024/04/12 07:07:29;;;;;;;6.63;5.43;;;14.60;48.00;;;;;;5363871;26;20280;-70
2024/04/12 07:09:57;;;;;;;5.80;5.20;;;14.80;48.60;;;;;;5342936;26;20305;-67
2024/04/12 07:12:27;;;;;;;7.87;5.30;;;14.70;47.20;;;;;;5351112;26;21276;-67
2024/04/12 07:14:54;;;;;;;7.00;5.97;;;14.70;47.50;;;;;;5349269;26;20788;-66
2024/04/12 07:17:26;;;;;;;7.20;6.40;;;14.80;47.00;;;;;;5358849;26;20357;-67
2024/04/12 07:19:51;;;;;;;8.17;6.80;;;14.80;47.10;;;;;;5355183;26;20271;-68
2024/04/12 07:22:21;;;;;;;7.90;6.50;;;15.00;47.60;;;;;;5363439;26;20314;-68
2024/04/12 07:24:47;;;;;;;11.20;6.77;;;15.40;46.80;;;;;;5343229;26;20775;-68
2024/04/12 07:27:16;;;;;;;7.63;6.70;;;15.60;45.00;;;;;;5354020;26;20249;-68
2024/04/12 07:29:44;;;;;;;8.27;6.20;;;15.70;45.80;;;;;;5341956;26;20238;-67
2024/04/12 07:32:13;;;;;;;8.73;6.17;;;15.90;45.10;;;;;;5362612;26;20309;-67
2024/04/12 07:34:48;;;;;;;6.93;6.27;;;15.80;43.90;;;;;;5364188;26;20245;-68
2024/04/12 07:37:21;;;;;;;9.67;6.67;;;16.10;43.40;;;;;;5365084;26;20242;-67
2024/04/12 07:39:47;;;;;;;8.50;6.10;;;15.90;43.50;;;;;;5341418;26;20262;-67
2024/04/12 07:42:19;;;;;;;7.53;6.83;;;16.10;44.10;;;;;;5344375;26;20351;-67
2024/04/12 07:44:45;;;;;;;8.87;7.23;;;16.00;42.70;;;;;;5340380;26;20280;-67
2024/04/12 07:47:16;;;;;;;7.77;6.83;;;15.80;42.10;;;;;;5334406;26;20794;-67
2024/04/12 07:49:48;;;;;;;7.60;6.80;;;15.90;41.70;;;;;;5343310;26;20313;-67
2024/04/12 07:52:16;;;;;;;7.20;5.57;;;16.20;41.20;;;;;;5376033;26;20321;-67
2024/04/12 07:54:43;;;;;;;6.97;6.30;;;16.10;42.50;;;;;;5359378;26;20300;-67
2024/04/12 07:57:13;;;;;;;7.10;6.33;;;16.20;41.70;;;;;;5351313;26;20259;-68
2024/04/12 07:59:39;;;;;;;8.30;6.50;;;16.20;41.40;;;;;;5354272;26;20771;-68
2024/04/12 08:02:08;;;;;;;8.20;6.07;;;16.40;41.30;;;;;;5327739;26;20310;-68
2024/04/12 08:04:36;;;;;;;8.27;6.00;;;16.50;41.00;;;;;;5337266;26;20253;-67
2024/04/12 08:07:13;;;;;;;6.07;5.47;;;16.70;41.20;;;;;;5314634;26;20296;-67
2024/04/12 08:09:42;;;;;;;7.33;5.30;;;17.00;40.60;;;;;;5325843;26;20249;-67
2024/04/12 08:12:17;;;;;;;7.00;5.80;;;17.10;40.30;;;;;;5327628;26;20253;-67
2024/04/12 08:14:51;;;;;;;7.20;5.60;;;16.80;39.70;;;;;;5346835;26;20289;-68
2024/04/12 08:17:23;;;;;;;6.50;5.60;;;16.80;39.40;;;;;;5333729;26;20282;-67
2024/04/12 08:19:49;;;;;;;6.90;5.70;;;17.00;39.70;;;;;;5359693;26;20845;-68
2024/04/12 08:22:20;;;;;;;5.20;4.70;;;17.40;38.90;;;;;;5329023;26;20351;-68
2024/04/12 08:24:49;;;;;;;5.23;4.70;;;17.70;37.80;;;;;;5343305;26;20237;-68
2024/04/12 08:27:18;;;;;;;6.50;5.70;;;17.60;37.50;;;;;;5343016;26;20233;-68
2024/04/12 08:29:44;;;;;;;6.83;5.60;;;17.50;37.10;;;;;;5338819;26;20252;-68
2024/04/12 08:32:19;;;;;;;6.67;5.23;;;17.60;38.10;;;;;;5338328;26;20763;-67
2024/04/12 08:34:45;;;;;;;6.57;5.13;;;18.00;37.00;;;;;;5334152;26;20241;-67
2024/04/12 08:37:16;;;;;;;5.10;4.70;;;18.10;36.60;;;;;;5339503;26;20283;-68
2024/04/12 08:39:43;;;;;;;5.97;4.70;;;18.20;36.50;;;;;;5334905;26;20342;-68
2024/04/12 08:42:14;;;;;;;7.03;5.27;;;18.30;37.30;;;;;;5340582;26;20256;-67
2024/04/12 08:44:40;;;;;;;6.23;4.90;;;18.40;36.40;;;;;;5345942;26;20277;-67
2024/04/12 08:47:30;;;;;;;6.17;4.63;;;18.40;36.00;;;;;;5368632;26;20357;-68
2024/04/12 08:49:56;;;;;;;5.37;4.70;;;18.70;38.70;;;;;;5343860;26;20235;-68
2024/04/12 08:52:28;;;;;;;6.87;5.23;;;19.10;35.40;;;;;;5346235;26;20360;-68
2024/04/12 08:54:54;;;;;;;6.83;5.13;;;19.00;35.80;;;;;;5342101;26;20243;-68
2024/04/12 08:57:22;;;;;;;6.00;4.53;;;19.10;36.00;;;;;;5332079;26;20238;-68
2024/04/12 08:59:48;;;;;;;7.70;5.10;;;19.30;33.90;;;;;;5342856;26;20276;-68
2024/04/12 09:02:17;;;;;;;7.93;6.23;;;19.00;34.20;;;;;;5344333;26;20247;-68
2024/04/12 09:04:42;;;;;;;6.13;5.50;;;19.00;35.10;;;;;;5345241;26;20247;-68
2024/04/12 09:07:12;;;;;;;6.87;5.90;;;19.20;38.60;;;;;;5341195;26;20245;-68
2024/04/12 09:09:37;;;;;;;7.43;4.43;;;19.50;37.90;;;;;;5342465;26;20300;-68
2024/04/12 09:12:12;;;;;;;6.35;4.95;;;19.90;39.10;;;;;;5345219;26;20241;-68
2024/04/12 09:14:40;;;;;;;8.65;5.13;;;20.90;37.30;;;;;;5307813;26;20252;-66
2024/04/12 09:17:14;;;;;;;5.97;4.55;;;21.10;35.50;;;;;;5316453;26;20279;-68
2024/04/12 09:19:39;;;;;;;5.95;5.45;;;20.80;37.90;;;;;;5340977;26;20288;-68
2024/04/12 09:22:09;;;;;;;6.07;4.80;;;20.50;35.80;;;;;;5344767;26;20728;-68
2024/04/12 09:24:39;;;;;;;5.90;5.30;;;20.60;36.80;;;;;;5343838;26;20248;-65
2024/04/12 09:27:09;;;;;;;5.13;4.72;;;20.40;36.30;;;;;;5344158;26;20594;-65
2024/04/12 09:29:43;;;;;;;4.75;4.35;;;20.10;34.60;;;;;;5335812;26;20268;-67
2024/04/12 09:34:58;;;;;;;7.95;5.35;;;20.10;34.70;;;;;;5337715;26;20284;-62
2024/04/12 09:37:30;;;;;;;7.00;5.65;;;20.00;32.10;;;;;;5342306;26;20252;-70
2024/04/12 09:40:16;;;;;;;7.68;6.10;;;20.00;34.60;;;;;;5343626;26;20244;-64
2024/04/12 09:42:45;;;;;;;6.97;6.18;;;19.80;35.10;;;;;;5339693;26;20587;-66
2024/04/12 09:45:16;;;;;;;6.75;6.10;;;19.90;35.90;;;;;;5337626;26;20291;-66
2024/04/12 10:37:36;;;;;;;8.57;5.43;;;20.30;32.90;;;;;;5275678;26;20307;-67
2024/04/12 10:40:05;;;;;;;7.50;5.10;;;20.20;34.20;;;;;;5339176;26;20943;-68
2024/04/12 10:42:31;;;;;;;7.10;5.10;;;20.20;33.20;;;;;;5334758;26;20260;-68
2024/04/12 10:45:01;;;;;;;6.47;5.47;;;20.20;34.40;;;;;;5298722;26;20815;-68
2024/04/12 10:47:29;;;;;;;7.00;5.80;;;20.30;34.80;;;;;;5301342;26;20249;-65
2024/04/12 10:49:56;;;;;;;5.93;4.83;;;20.20;32.90;;;;;;5305792;26;20298;-65
2024/04/12 10:52:31;;;;;;;7.30;6.10;;;20.50;33.80;;;;;;5302576;26;20755;-66
2024/04/12 10:54:57;;;;;;;6.53;5.93;;;20.40;33.10;;;;;;5302435;26;20341;-67
2024/04/12 10:57:27;;;;;;;5.40;4.90;;;20.50;32.80;;;;;;5304172;26;20253;-69
2024/04/12 10:59:53;;;;;;;6.90;5.80;;;20.40;34.40;;;;;;5301512;26;20248;-68
2024/04/12 11:02:22;;;;;;;8.07;4.70;;;20.50;34.20;;;;;;5293838;26;20660;-68
2024/04/12 11:05:24;;;;;;;7.37;5.07;;;20.60;34.20;;;;;;5313464;26;20287;-67
2024/04/12 11:07:52;;;;;;;6.43;4.70;;;20.70;33.30;;;;;;5306638;26;20625;-67
2024/04/12 11:10:24;;;;;;;5.50;5.00;;;20.70;33.60;;;;;;5288225;26;20478;-68
2024/04/12 11:12:59;;;;;;;7.37;5.30;;;20.80;34.70;;;;;;5294239;26;20253;-67
2024/04/12 11:31:52;;;;;;;5.80;4.60;;;20.80;34.10;;;;;;5287765;26;20396;-68
2024/04/12 11:34:20;;;;;;;5.27;4.10;;;20.70;33.90;;;;;;5330833;26;20730;-67
2024/04/12 11:36:53;;;;;;;5.53;5.00;;;20.70;33.70;;;;;;5332307;26;20359;-66
2024/04/12 11:39:18;;;;;;;7.20;5.17;;;20.70;32.70;;;;;;5279135;26;20245;-67
2024/04/12 11:41:47;;;;;;;7.77;4.60;;;20.70;32.60;;;;;;5300626;26;20295;-67
2024/04/12 11:44:17;;;;;;;5.47;4.63;;;20.70;33.40;;;;;;5317440;26;20287;-68
2024/04/12 11:46:45;;;;;;;7.23;5.33;;;20.70;32.20;;;;;;5315665;26;20252;-67
2024/04/12 11:49:11;;;;;;;7.97;5.60;;;20.60;32.10;;;;;;5308712;26;20417;-67
2024/04/12 11:51:39;;;;;;;6.67;5.60;;;20.50;31.50;;;;;;5298882;26;20262;-66
2024/04/12 11:54:05;;;;;;;5.60;4.63;;;20.10;30.90;;;;;;5296684;26;20758;-66
2024/04/12 11:56:34;;;;;;;8.33;4.83;;;20.20;32.40;;;;;;5315008;26;20252;-67
2024/04/12 11:59:00;;;;;;;13.23;5.17;;;20.40;32.10;;;;;;5307473;26;20248;-66
2024/04/12 12:01:29;;;;;;;5.40;4.67;;;20.60;33.30;;;;;;5314180;26;20248;-67
2024/04/12 12:03:54;;;;;;;6.53;5.13;;;20.70;31.40;;;;;;5289472;26;20257;-68
2024/04/12 12:06:23;;;;;;;8.27;4.70;;;20.70;31.30;;;;;;5302743;26;20272;-67
2024/04/12 12:08:57;;;;;;;7.40;4.90;;;20.80;31.70;;;;;;5347025;26;20247;-66
2024/04/12 12:11:27;;;;;;;5.87;5.27;;;20.70;31.30;;;;;;5325910;26;20286;-64
2024/04/12 12:13:53;;;;;;;4.97;4.47;;;20.60;30.20;;;;;;5330703;26;20240;-69
2024/04/12 12:16:22;;;;;;;4.53;3.53;;;20.80;30.90;;;;;;5325871;26;20291;-69
2024/04/12 12:18:47;;;;;;;5.97;5.07;;;20.90;32.20;;;;;;5328133;26;20251;-68
2024/04/12 12:21:17;;;;;;;5.63;5.13;;;21.00;31.00;;;;;;5326664;26;20293;-66
2024/04/12 12:23:42;;;;;;;4.53;4.07;;;21.00;30.50;;;;;;5326335;26;20415;-67
2024/04/12 12:26:14;;;;;;;5.23;4.80;;;21.00;30.90;;;;;;5337915;26;20249;-67
2024/04/12 12:28:40;;;;;;;4.40;4.00;;;21.00;30.90;;;;;;5348462;26;20252;-67
2024/04/12 12:31:11;;;;;;;5.40;4.30;;;20.90;32.40;;;;;;5327803;26;20248;-67
2024/04/12 12:33:38;;;;;;;7.60;5.63;;;21.00;31.80;;;;;;5318263;26;21920;-67
2024/04/12 12:36:06;;;;;;;5.73;4.60;;;20.80;30.00;;;;;;5323577;26;20240;-68
2024/04/12 12:38:31;;;;;;;6.27;4.60;;;20.70;31.20;;;;;;5327004;26;20910;-63
2024/04/12 12:41:00;;;;;;;6.23;5.63;;;20.80;31.30;;;;;;5327296;26;20777;-65
2024/04/12 12:43:28;;;;;;;7.53;5.17;;;21.10;31.40;;;;;;5337659;26;20248;-65
2024/04/12 12:45:57;;;;;;;7.13;5.87;;;21.00;31.80;;;;;;5354014;26;20251;-66
2024/04/12 12:48:27;;;;;;;8.10;4.80;;;20.90;30.40;;;;;;5322934;26;20798;-67
2024/04/12 12:50:56;;;;;;;5.70;5.03;;;20.90;31.10;;;;;;5321926;26;20257;-70
2024/04/12 12:53:22;;;;;;;8.00;6.50;;;21.20;32.40;;;;;;5325725;26;20760;-71
2024/04/12 12:55:51;;;;;;;5.47;4.93;;;21.20;29.90;;;;;;5326528;26;20245;-74
2024/04/12 12:58:18;;;;;;;7.33;5.17;;;21.20;30.70;;;;;;5343878;26;20244;-70
2024/04/12 13:00:47;;;;;;;6.15;5.15;;;21.50;31.50;;;;;;5369317;26;20329;-70
2024/04/12 13:03:17;;;;;;;5.38;4.88;;;21.50;31.10;;;;;;5357995;26;20892;-70
2024/04/12 13:05:48;;;;;;;5.78;5.05;;;21.50;32.30;;;;;;5320332;26;20274;-69
2024/04/12 13:08:15;;;;;;;7.73;6.20;;;21.60;31.70;;;;;;5325367;26;20264;-67
2024/04/12 13:10:43;;;;;;;6.73;6.00;;;21.60;30.70;;;;;;5321996;26;20304;-71
2024/04/12 13:13:17;;;;;;;8.10;6.00;;;21.10;31.20;;;;;;5348285;26;20294;-68
2024/04/12 13:15:45;;;;;;;8.77;6.47;;;21.20;31.80;;;;;;5342551;26;20346;-69
2024/04/12 13:18:11;;;;;;;8.67;7.70;;;21.20;31.60;;;;;;5344847;26;20244;-71
2024/04/12 13:20:39;;;;;;;7.97;7.18;;;21.30;31.20;;;;;;5338531;26;20241;-71
2024/04/12 13:23:05;;;;;;;7.22;6.38;;;21.30;31.20;;;;;;5334177;26;21193;-69
2024/04/12 13:25:33;;;;;;;7.97;7.07;;;21.30;31.50;;;;;;5360679;26;20235;-72
2024/04/12 13:27:59;;;;;;;7.38;6.35;;;21.30;31.30;;;;;;5322026;26;20690;-70
2024/04/12 13:30:29;;;;;;;8.98;6.95;;;21.20;31.70;;;;;;5346778;26;20245;-69
2024/04/12 13:32:58;;;;;;;7.60;6.45;;;21.30;31.80;;;;;;5332389;26;20248;-68
2024/04/12 13:35:27;;;;;;;8.17;6.17;;;21.30;33.30;;;;;;5333949;26;20287;-71
2024/04/12 13:37:55;;;;;;;7.63;6.95;;;21.30;32.50;;;;;;5322323;26;20256;-67
2024/04/12 13:40:25;;;;;;;7.53;6.60;;;20.90;32.00;;;;;;5327402;26;20659;-69
2024/04/12 13:42:50;;;;;;;8.63;7.70;;;20.90;33.20;;;;;;5324556;26;20379;-69
2024/04/12 13:51:01;;;;;;;9.33;6.67;;;21.00;33.40;;;;;;5328708;26;20342;-69
2024/04/12 13:53:35;;;;;;;7.97;7.17;;;21.00;33.30;;;;;;5320490;26;20251;-68
2024/04/12 13:56:19;;;;;;;7.67;6.90;;;21.00;32.90;;;;;;5323429;26;20244;-68
2024/04/12 13:58:48;;;;;;;8.17;6.50;;;20.90;33.10;;;;;;5351059;26;20354;-67
2024/04/12 14:01:17;;;;;;;8.70;5.70;;;21.00;33.10;;;;;;5332527;26;20580;-65
2024/04/12 14:03:42;;;;;;;6.20;5.17;;;21.10;32.80;;;;;;5342285;26;20243;-66
2024/04/12 14:06:11;;;;;;;7.33;6.40;;;21.00;32.80;;;;;;5342963;26;20307;-65
2024/04/12 14:08:37;;;;;;;8.00;6.67;;;21.00;32.10;;;;;;5334985;26;20658;-66
2024/04/12 14:11:05;;;;;;;7.80;7.07;;;20.90;32.00;;;;;;5350510;26;20258;-66
2024/04/12 14:13:31;;;;;;;6.33;5.67;;;20.40;32.20;;;;;;5344437;26;20272;-66